Time;durP1;ratioP1;P1;durP2;ratioP2;P2;SDS_P1;SDS_P2;PMS_P1;PMS_P2;Temp;Humidity;BMP_temperature;BMP_pressure;BME280_temperature;BME280_humidity;BME280_pressure;Samples;Min_cycle;Max_cycle;Signal;HPM_P1;HPM_P2
2022/12/06 00:04:44;;;;;;;2.90;1.70;;;16.10;62.50;;;;;;10449988;28;20036;-53
2022/12/06 00:09:45;;;;;;;2.55;1.67;;;16.20;63.20;;;;;;10437105;28;20070;-51
2022/12/06 00:14:46;;;;;;;3.92;1.60;;;16.20;62.60;;;;;;10447747;28;20031;-52
2022/12/06 00:19:47;;;;;;;2.78;1.60;;;16.20;62.50;;;;;;10455589;28;20036;-52
2022/12/06 00:24:47;;;;;;;4.05;1.35;;;16.20;62.40;;;;;;10453194;28;20029;-56
2022/12/06 00:29:48;;;;;;;2.67;1.60;;;16.20;62.50;;;;;;10450842;28;20360;-50
2022/12/06 00:34:49;;;;;;;2.97;1.40;;;16.10;62.40;;;;;;10437822;28;20063;-52
2022/12/06 00:39:49;;;;;;;2.72;1.58;;;16.20;62.40;;;;;;10426549;28;20028;-52
2022/12/06 00:44:50;;;;;;;2.35;1.20;;;16.20;62.70;;;;;;10448518;28;20049;-50
2022/12/06 00:49:51;;;;;;;2.55;1.23;;;16.30;63.50;;;;;;10450809;28;20025;-49
2022/12/06 00:54:52;;;;;;;2.47;1.75;;;16.40;64.20;;;;;;10450268;28;20040;-54
2022/12/06 00:59:52;;;;;;;3.38;0.93;;;16.40;64.30;;;;;;10449212;28;20465;-52
2022/12/06 01:04:53;;;;;;;2.20;1.20;;;16.30;64.40;;;;;;10449933;28;20043;-51
2022/12/06 01:09:54;;;;;;;1.95;1.20;;;16.30;64.60;;;;;;10417782;28;20036;-52
2022/12/06 01:14:54;;;;;;;2.10;1.00;;;16.20;64.70;;;;;;10428799;28;20021;-51
2022/12/06 01:19:55;;;;;;;3.15;1.25;;;16.20;64.80;;;;;;10454677;28;20019;-52
2022/12/06 01:24:56;;;;;;;3.35;1.13;;;16.30;64.80;;;;;;10447098;28;20024;-52
2022/12/06 01:29:56;;;;;;;2.30;1.10;;;16.30;64.50;;;;;;10425150;28;20073;-52
2022/12/06 01:34:57;;;;;;;3.42;1.60;;;16.30;64.40;;;;;;10445694;28;20048;-50
2022/12/06 01:39:58;;;;;;;1.67;1.00;;;16.30;64.50;;;;;;10437984;28;20036;-53
2022/12/06 01:44:58;;;;;;;2.42;1.00;;;16.20;64.70;;;;;;10423535;28;20083;-53
2022/12/06 01:50:18;;;;;;;2.22;1.23;;;16.10;64.90;;;;;;10433838;28;20113;-53
2022/12/06 01:55:24;;;;;;;1.90;0.90;;;16.10;64.80;;;;;;10407542;28;20087;-52
2022/12/06 02:00:25;;;;;;;2.35;0.90;;;16.10;64.60;;;;;;10412099;28;20472;-53
2022/12/06 02:05:26;;;;;;;2.85;1.35;;;16.10;64.60;;;;;;10432449;28;20017;-53
2022/12/06 02:10:28;;;;;;;2.65;1.40;;;16.10;64.50;;;;;;10440813;28;20056;-53
2022/12/06 02:16:10;;;;;;;1.30;0.80;;;16.10;64.30;;;;;;10421981;28;20502;-52
2022/12/06 02:21:45;;;;;;;1.67;0.77;;;16.20;64.30;;;;;;10447050;28;20040;-52
2022/12/06 02:27:00;;;;;;;4.05;1.20;;;16.10;64.30;;;;;;10446453;28;20094;-51
2022/12/06 02:32:14;;;;;;;2.25;1.10;;;16.10;64.30;;;;;;10445800;28;20110;-52
2022/12/06 02:37:41;;;;;;;1.70;0.95;;;16.10;64.10;;;;;;10445849;28;20033;-51
2022/12/06 02:43:00;;;;;;;2.80;1.88;;;16.20;64.00;;;;;;10446194;28;20017;-50
2022/12/06 02:48:03;;;;;;;1.88;1.13;;;16.20;63.80;;;;;;10432229;28;20491;-53
2022/12/06 02:53:09;;;;;;;3.35;1.42;;;16.20;63.90;;;;;;10418672;28;20017;-52
2022/12/06 02:58:09;;;;;;;1.50;0.98;;;16.10;64.10;;;;;;10443340;28;20029;-53
2022/12/06 03:03:45;;;;;;;1.67;1.02;;;16.10;64.10;;;;;;10437098;28;20080;-52
2022/12/06 03:09:04;;;;;;;2.05;1.02;;;16.10;63.90;;;;;;10428362;28;20080;-54
2022/12/06 03:14:12;;;;;;;1.83;0.85;;;16.10;63.90;;;;;;10434296;28;20531;-50
2022/12/06 03:19:21;;;;;;;1.58;0.77;;;16.10;63.90;;;;;;10432169;28;20041;-53
2022/12/06 03:24:23;;;;;;;1.95;0.95;;;16.10;63.80;;;;;;10436888;28;20060;-52
2022/12/06 03:29:27;;;;;;;2.22;1.05;;;16.10;63.80;;;;;;10438921;28;20215;-53
2022/12/06 03:34:35;;;;;;;2.85;1.15;;;16.10;63.60;;;;;;10430522;28;20057;-51
2022/12/06 03:39:47;;;;;;;1.60;0.70;;;16.10;63.60;;;;;;10444591;28;20032;-54
2022/12/06 03:44:48;;;;;;;4.47;1.60;;;16.10;63.60;;;;;;10434644;28;20392;-53
2022/12/06 03:50:00;;;;;;;1.67;0.95;;;16.10;63.50;;;;;;10444367;28;20033;-53
2022/12/06 03:55:01;;;;;;;3.58;1.35;;;16.10;63.50;;;;;;10427806;28;20060;-52
2022/12/06 04:00:03;;;;;;;1.17;0.68;;;16.10;63.40;;;;;;10430605;28;20480;-53
2022/12/06 04:05:04;;;;;;;1.75;1.42;;;16.20;63.30;;;;;;10432895;28;20033;-52
2022/12/06 04:10:06;;;;;;;1.42;0.80;;;16.10;63.40;;;;;;10435771;28;20143;-53
2022/12/06 04:15:09;;;;;;;1.05;0.70;;;16.10;63.30;;;;;;10447154;28;20032;-52
2022/12/06 04:20:09;;;;;;;1.77;0.75;;;16.10;63.20;;;;;;10442337;28;20028;-52
2022/12/06 04:25:10;;;;;;;2.55;1.00;;;16.10;63.30;;;;;;10408671;28;20484;-52
2022/12/06 04:40:49;;;;;;;1.25;0.68;;;16.10;63.20;;;;;;10449308;28;20029;-53
2022/12/06 04:45:51;;;;;;;1.75;1.08;;;16.20;63.10;;;;;;10441340;28;20042;-53
2022/12/06 04:50:51;;;;;;;1.35;0.90;;;16.10;63.10;;;;;;10422958;28;20048;-52
2022/12/06 04:55:52;;;;;;;0.98;0.52;;;16.20;63.20;;;;;;10429147;28;20113;-52
2022/12/06 05:00:56;;;;;;;3.15;1.08;;;16.30;63.20;;;;;;10434682;28;20189;-53
2022/12/06 05:05:56;;;;;;;2.83;0.80;;;16.20;63.60;;;;;;10435907;28;20052;-52
2022/12/06 05:10:57;;;;;;;1.67;0.90;;;16.10;64.00;;;;;;10432263;28;20048;-53
2022/12/06 05:16:02;;;;;;;2.63;0.68;;;16.10;64.10;;;;;;10424502;28;20555;-52
2022/12/06 05:21:15;;;;;;;4.25;0.93;;;16.10;63.90;;;;;;10434919;28;20039;-53
2022/12/06 05:26:18;;;;;;;1.38;0.77;;;16.10;63.90;;;;;;10423854;28;20036;-53
2022/12/06 05:31:20;;;;;;;2.10;0.82;;;16.00;64.00;;;;;;10436723;28;20017;-52
2022/12/06 05:36:26;;;;;;;6.13;0.95;;;15.90;64.20;;;;;;10443515;28;20476;-52
2022/12/06 05:41:26;;;;;;;1.33;0.90;;;16.00;64.20;;;;;;10429509;28;20115;-52
2022/12/06 05:46:27;;;;;;;1.50;0.70;;;16.10;63.90;;;;;;10440457;28;20076;-52
2022/12/06 05:51:28;;;;;;;1.38;0.85;;;16.00;63.80;;;;;;10418542;28;20105;-53
2022/12/06 05:56:28;;;;;;;2.40;0.82;;;16.00;63.80;;;;;;10439204;28;20104;-52
2022/12/06 06:01:29;;;;;;;1.52;0.80;;;16.10;63.80;;;;;;10413580;28;20045;-52
2022/12/06 06:06:30;;;;;;;1.92;1.00;;;16.00;64.00;;;;;;10430611;28;20024;-50
2022/12/06 06:11:30;;;;;;;3.90;0.82;;;16.10;63.70;;;;;;10440810;28;20244;-53
2022/12/06 06:16:32;;;;;;;4.03;0.80;;;16.10;64.20;;;;;;10439189;28;20648;-52
2022/12/06 06:21:33;;;;;;;5.75;1.30;;;16.30;63.70;;;;;;10446870;28;20024;-54
2022/12/06 06:26:34;;;;;;;6.78;1.00;;;16.40;64.60;;;;;;10445511;28;20029;-50
2022/12/06 06:31:34;;;;;;;7.95;1.30;;;16.30;64.80;;;;;;10441212;28;20090;-51
2022/12/06 06:36:35;;;;;;;6.97;1.33;;;16.20;65.30;;;;;;10441549;28;20544;-52
2022/12/06 06:41:36;;;;;;;8.85;1.35;;;16.20;65.80;;;;;;10434499;28;20067;-51
2022/12/06 06:46:36;;;;;;;7.80;1.13;;;16.10;65.30;;;;;;10444709;28;20051;-53
2022/12/06 06:51:38;;;;;;;5.43;1.17;;;16.10;65.40;;;;;;10427231;28;20049;-51
2022/12/06 06:56:39;;;;;;;7.20;1.45;;;16.10;65.70;;;;;;10444271;28;20415;-50
2022/12/06 07:01:39;;;;;;;10.57;1.92;;;16.00;65.80;;;;;;10426456;28;20104;-52
2022/12/06 07:06:40;;;;;;;6.20;1.30;;;15.90;65.80;;;;;;10444303;28;20082;-52
2022/12/06 07:11:41;;;;;;;10.75;2.17;;;15.80;65.80;;;;;;10437427;28;20024;-53
2022/12/06 07:16:41;;;;;;;8.88;2.08;;;15.80;66.80;;;;;;10438864;28;20104;-52
2022/12/06 07:21:42;;;;;;;11.10;1.45;;;15.80;65.60;;;;;;10434699;28;20048;-53
2022/12/06 07:26:43;;;;;;;7.32;1.25;;;15.80;65.30;;;;;;10418015;28;20116;-51
2022/12/06 07:31:44;;;;;;;9.40;3.20;;;15.80;65.20;;;;;;10431661;28;20489;-52
2022/12/06 07:36:44;;;;;;;5.80;1.25;;;15.80;64.90;;;;;;10442311;28;20060;-52
2022/12/06 07:47:05;;;;;;;5.47;1.55;;;15.70;64.80;;;;;;10425244;28;20037;-49
2022/12/06 07:52:05;;;;;;;6.85;2.05;;;15.80;64.50;;;;;;10419074;28;20391;-47
2022/12/06 07:57:06;;;;;;;10.38;1.92;;;15.90;64.60;;;;;;10434120;28;20040;-50
2022/12/06 08:02:17;;;;;;;3.72;1.15;;;15.90;64.70;;;;;;10439590;28;20060;-50
2022/12/06 08:07:19;;;;;;;9.18;1.70;;;16.00;65.30;;;;;;10439217;28;20072;-48
2022/12/06 08:12:20;;;;;;;9.63;1.35;;;16.00;65.40;;;;;;10436790;28;20104;-53
2022/12/06 08:17:21;;;;;;;4.72;1.25;;;16.10;65.10;;;;;;10411046;28;20024;-47
2022/12/06 08:22:22;;;;;;;6.78;1.60;;;16.10;64.90;;;;;;10423308;28;20080;-52
2022/12/06 08:27:22;;;;;;;5.55;1.63;;;16.00;65.00;;;;;;10432810;28;20021;-51
2022/12/06 08:32:23;;;;;;;3.90;1.42;;;16.00;65.20;;;;;;10448112;28;20514;-48
2022/12/06 08:37:24;;;;;;;5.97;1.40;;;16.00;64.90;;;;;;10449258;28;20052;-49
2022/12/06 08:42:24;;;;;;;2.70;1.38;;;15.90;65.20;;;;;;10419655;28;20076;-52
2022/12/06 08:47:25;;;;;;;2.75;1.30;;;15.90;64.90;;;;;;10420114;28;20037;-47
2022/12/06 08:52:26;;;;;;;6.10;1.25;;;15.90;65.20;;;;;;10448559;28;20022;-51
2022/12/06 08:57:26;;;;;;;4.18;1.10;;;15.90;65.30;;;;;;10434158;28;20100;-53
2022/12/06 09:02:27;;;;;;;3.35;1.15;;;15.90;64.70;;;;;;10432649;28;20113;-52
2022/12/06 09:07:28;;;;;;;2.90;0.90;;;15.90;64.60;;;;;;10436220;28;20033;-51
2022/12/06 09:12:28;;;;;;;7.78;1.90;;;15.80;64.70;;;;;;10424058;28;20103;-52
2022/12/06 09:17:29;;;;;;;6.25;1.60;;;15.80;65.60;;;;;;10419070;28;20096;-54
2022/12/06 09:22:30;;;;;;;5.05;1.63;;;15.80;65.60;;;;;;10443697;28;20491;-51
2022/12/06 09:27:30;;;;;;;7.10;1.48;;;15.90;65.10;;;;;;10441554;28;20112;-53
2022/12/06 09:32:31;;;;;;;7.05;1.92;;;15.80;64.50;;;;;;10439097;28;20063;-53
2022/12/06 09:37:32;;;;;;;10.02;2.08;;;15.90;64.60;;;;;;10427119;28;20155;-54
2022/12/06 09:42:57;;;;;;;6.10;1.52;;;15.80;64.90;;;;;;10443689;28;20021;-53
2022/12/06 09:48:25;;;;;;;6.60;1.63;;;15.70;65.50;;;;;;10436195;28;20056;-53
2022/12/06 09:53:41;;;;;;;3.40;1.50;;;15.70;65.80;;;;;;10443823;28;20017;-53
2022/12/06 09:59:23;;;;;;;4.13;1.40;;;15.70;65.80;;;;;;10444855;28;20474;-53
2022/12/06 10:04:42;;;;;;;5.20;1.50;;;15.70;65.80;;;;;;10444494;28;20032;-53
2022/12/06 10:10:14;;;;;;;3.00;1.13;;;15.60;65.70;;;;;;10431834;28;20065;-54
2022/12/06 10:15:36;;;;;;;7.63;1.98;;;15.60;65.70;;;;;;10445563;28;20431;-53
2022/12/06 10:21:24;;;;;;;3.38;1.55;;;15.70;65.90;;;;;;10452549;28;20108;-52
2022/12/06 10:26:33;;;;;;;2.50;1.63;;;15.60;65.80;;;;;;10404462;28;20081;-52
2022/12/06 10:32:17;;;;;;;2.13;0.90;;;15.60;66.00;;;;;;10438625;28;20036;-53
2022/12/06 10:37:56;;;;;;;3.63;1.27;;;15.70;66.10;;;;;;10442896;28;20025;-53
2022/12/06 10:43:26;;;;;;;3.50;0.80;;;15.60;66.10;;;;;;10424655;28;20087;-53
2022/12/06 10:48:46;;;;;;;;;;;15.60;66.30;;;;;;10433793;28;20076;-54
2022/12/06 10:54:06;;;;;;;2.90;1.13;;;15.60;66.10;;;;;;10430593;28;19905;-54
2022/12/06 10:59:27;;;;;;;3.53;1.33;;;15.60;66.30;;;;;;10399557;28;20021;-53
2022/12/06 11:04:34;;;;;;;2.35;1.27;;;15.70;66.20;;;;;;10425641;28;20096;-54
2022/12/06 11:09:47;;;;;;;2.40;1.25;;;15.70;66.00;;;;;;10428955;28;20108;-53
2022/12/06 11:15:02;;;;;;;4.25;1.35;;;15.70;65.90;;;;;;10430938;28;20029;-52
2022/12/06 11:20:38;;;;;;;6.55;1.20;;;15.80;65.60;;;;;;10451937;28;20021;-54
2022/12/06 11:26:22;;;;;;;3.60;1.50;;;16.10;65.90;;;;;;10437679;28;20464;-53
2022/12/06 11:31:39;;;;;;;4.95;1.85;;;16.40;65.30;;;;;;10440164;28;20044;-53
2022/12/06 11:36:40;;;;;;;4.75;1.73;;;16.50;64.90;;;;;;10422157;28;20055;-53
2022/12/06 11:41:47;;;;;;;4.57;1.73;;;16.30;65.30;;;;;;10405742;28;20029;-54
2022/12/06 11:46:55;;;;;;;2.60;1.35;;;16.00;66.20;;;;;;10399607;28;20834;-54
2022/12/06 11:52:02;;;;;;;4.57;1.35;;;15.90;66.40;;;;;;10444818;28;20518;-54
2022/12/06 11:57:22;;;;;;;2.90;1.30;;;15.80;67.00;;;;;;10430515;28;20033;-53
2022/12/06 12:02:32;;;;;;;2.72;1.15;;;15.80;66.70;;;;;;10444838;28;20630;-53
2022/12/06 12:07:34;;;;;;;6.07;2.05;;;15.80;66.60;;;;;;10422066;28;20029;-53
2022/12/06 12:18:15;;;;;;;15.23;2.10;;;15.60;67.40;;;;;;10433520;28;20029;-52
2022/12/06 12:23:30;;;;;;;11.20;2.53;;;15.60;68.00;;;;;;10430904;28;20061;-53
2022/12/06 12:28:33;;;;;;;5.43;1.73;;;15.60;68.50;;;;;;10445851;28;20086;-53
2022/12/06 12:33:35;;;;;;;8.43;1.50;;;15.70;67.80;;;;;;10435281;28;20802;-54
2022/12/06 12:38:59;;;;;;;11.75;2.58;;;15.70;67.70;;;;;;10438723;28;20403;-52
2022/12/06 12:44:13;;;;;;;6.20;1.98;;;15.60;67.50;;;;;;10431121;28;20132;-53
2022/12/06 12:49:37;;;;;;;7.10;1.90;;;15.50;67.80;;;;;;10411196;28;20508;-53
2022/12/06 12:54:38;;;;;;;10.65;1.90;;;15.50;67.80;;;;;;10418470;28;20108;-52
2022/12/06 12:59:42;;;;;;;7.38;1.95;;;15.40;67.50;;;;;;10441109;28;20032;-51
2022/12/06 13:04:47;;;;;;;6.15;1.48;;;15.40;67.30;;;;;;10434259;28;20482;-53
2022/12/06 13:10:18;;;;;;;4.00;1.05;;;15.50;66.90;;;;;;10428175;28;20041;-52
2022/12/06 13:15:45;;;;;;;4.60;1.50;;;15.50;66.90;;;;;;10433909;28;20055;-51
2022/12/06 13:20:50;;;;;;;8.00;2.15;;;15.40;66.70;;;;;;10437878;28;20029;-52
2022/12/06 13:26:15;;;;;;;9.52;2.13;;;15.50;66.50;;;;;;10400169;28;20668;-52
2022/12/06 13:31:22;;;;;;;7.93;2.05;;;15.60;66.80;;;;;;10446027;28;20021;-53
2022/12/06 13:36:24;;;;;;;3.70;1.25;;;15.60;66.20;;;;;;10446852;28;20032;-51
2022/12/06 13:47:25;;;;;;;4.43;1.58;;;15.70;66.10;;;;;;10424899;28;20041;-53
2022/12/06 13:52:41;;;;;;;9.38;2.25;;;15.60;66.70;;;;;;10424686;28;20013;-51
2022/12/06 13:57:41;;;;;;;4.15;1.38;;;15.60;66.80;;;;;;10425826;28;20235;-51
2022/12/06 14:02:45;;;;;;;6.97;1.58;;;15.60;66.70;;;;;;10421925;28;20128;-52
2022/12/06 14:07:45;;;;;;;7.00;2.10;;;15.60;66.80;;;;;;10426299;28;20099;-53
2022/12/06 14:12:59;;;;;;;7.65;1.83;;;15.50;67.30;;;;;;10423528;28;20079;-53
2022/12/06 14:18:00;;;;;;;5.40;2.00;;;15.50;66.90;;;;;;10422048;28;20067;-54
2022/12/06 14:23:01;;;;;;;9.68;1.70;;;15.60;66.50;;;;;;10426029;28;20151;-53
2022/12/06 14:28:10;;;;;;;7.20;1.67;;;15.60;66.30;;;;;;10412831;28;20116;-53
2022/12/06 14:33:22;;;;;;;4.60;1.60;;;15.60;66.20;;;;;;10427355;28;20452;-52
2022/12/06 14:38:29;;;;;;;4.47;1.42;;;15.70;65.90;;;;;;10425155;28;20032;-51
2022/12/06 14:43:32;;;;;;;3.05;1.10;;;15.70;65.80;;;;;;10429464;28;20028;-54
2022/12/06 14:53:52;;;;;;;;;;;15.70;65.50;;;;;;10415809;28;20053;-53
2022/12/06 14:58:57;;;;;;;10.82;1.58;;;15.90;65.10;;;;;;10441380;28;19909;-54
2022/12/06 15:04:05;;;;;;;4.55;1.55;;;16.10;64.20;;;;;;10420252;28;20017;-52
2022/12/06 15:09:14;;;;;;;11.43;1.88;;;16.20;63.50;;;;;;10428555;28;20097;-55
2022/12/06 15:14:23;;;;;;;6.00;1.80;;;16.50;62.60;;;;;;10424982;28;20013;-55
2022/12/06 15:19:24;;;;;;;8.90;1.45;;;16.70;62.00;;;;;;10444311;28;20021;-54
2022/12/06 15:24:27;;;;;;;7.45;1.77;;;16.90;61.50;;;;;;10410454;28;20075;-53
2022/12/06 15:29:27;;;;;;;7.53;1.63;;;16.90;61.90;;;;;;10423361;28;20033;-54
2022/12/06 15:34:33;;;;;;;24.30;11.25;;;16.40;62.70;;;;;;10422706;28;20108;-54
2022/12/06 15:39:34;;;;;;;14.73;5.32;;;16.30;62.60;;;;;;10422306;28;20100;-54
2022/12/06 15:44:35;;;;;;;16.60;3.97;;;16.40;62.50;;;;;;10421335;28;20037;-54
2022/12/06 15:49:36;;;;;;;11.32;3.22;;;16.40;61.90;;;;;;10429248;28;20101;-53
2022/12/06 15:54:37;;;;;;;9.98;3.88;;;16.50;61.50;;;;;;10423303;28;20014;-52
2022/12/06 15:59:38;;;;;;;10.85;3.13;;;16.90;60.10;;;;;;10422681;28;20605;-53
2022/12/06 16:04:39;;;;;;;9.77;3.30;;;17.40;59.30;;;;;;10427161;28;20052;-54
2022/12/06 16:09:39;;;;;;;13.55;3.80;;;17.40;59.70;;;;;;10446025;28;20090;-52
2022/12/06 16:14:40;;;;;;;13.60;3.28;;;17.40;60.20;;;;;;10440878;28;20501;-53
2022/12/06 16:25:00;;;;;;;10.10;3.27;;;17.40;62.00;;;;;;10447378;28;20033;-52
2022/12/06 16:30:02;;;;;;;10.45;4.13;;;17.30;63.30;;;;;;10441114;28;20495;-51
2022/12/06 16:35:03;;;;;;;7.85;3.70;;;17.20;64.30;;;;;;10426630;28;20352;-53
2022/12/06 16:40:05;;;;;;;15.10;4.10;;;17.20;65.20;;;;;;10440513;28;20037;-53
2022/12/06 16:45:06;;;;;;;9.75;3.25;;;17.30;64.90;;;;;;10422649;28;20404;-53
2022/12/06 16:50:20;;;;;;;10.95;4.57;;;17.40;64.50;;;;;;10412251;28;20040;-55
2022/12/06 16:55:21;;;;;;;9.75;3.75;;;17.20;68.90;;;;;;10433979;28;20272;-53
2022/12/06 17:00:22;;;;;;;16.55;3.03;;;17.00;69.10;;;;;;10436286;28;20540;-51
2022/12/06 17:05:25;;;;;;;15.77;4.25;;;16.90;68.40;;;;;;10443802;28;20487;-54
2022/12/06 17:10:26;;;;;;;10.82;3.60;;;16.80;69.10;;;;;;10429076;28;20464;-51
2022/12/06 17:15:26;;;;;;;11.95;3.90;;;16.70;68.00;;;;;;10436949;28;20029;-52
2022/12/06 17:20:27;;;;;;;19.30;3.45;;;16.60;67.80;;;;;;10440345;28;20484;-53
2022/12/06 17:25:28;;;;;;;18.20;4.38;;;16.60;67.20;;;;;;10404178;28;20432;-52
2022/12/06 17:30:28;;;;;;;10.80;2.88;;;16.60;67.40;;;;;;10410179;28;20033;-52
2022/12/06 17:35:30;;;;;;;14.10;3.90;;;16.60;66.60;;;;;;10444143;28;20563;-51
2022/12/06 17:40:31;;;;;;;14.77;3.33;;;16.60;66.20;;;;;;10445914;28;20017;-52
2022/12/06 17:45:32;;;;;;;9.98;2.55;;;16.60;65.90;;;;;;10445108;28;20428;-51
2022/12/06 17:50:33;;;;;;;10.10;2.95;;;16.60;65.70;;;;;;10445681;28;20033;-52
2022/12/06 17:55:34;;;;;;;7.47;2.65;;;16.70;65.30;;;;;;10442218;28;20112;-52
2022/12/06 18:00:34;;;;;;;11.75;3.05;;;16.70;65.10;;;;;;10448122;28;20108;-53
2022/12/06 18:05:35;;;;;;;14.50;3.38;;;16.60;64.90;;;;;;10413425;28;20056;-52
2022/12/06 18:10:35;;;;;;;8.90;2.38;;;16.70;64.90;;;;;;10442564;28;20094;-53
2022/12/06 18:15:36;;;;;;;6.93;2.08;;;16.60;65.00;;;;;;10461575;28;20686;-53
2022/12/06 18:20:37;;;;;;;10.07;2.63;;;16.60;65.10;;;;;;10438686;28;20356;-52
2022/12/06 18:25:41;;;;;;;6.70;2.67;;;16.50;65.40;;;;;;10419966;28;20025;-53
2022/12/06 18:30:42;;;;;;;4.78;1.92;;;16.50;65.50;;;;;;10430298;28;20412;-53
2022/12/06 18:35:43;;;;;;;9.77;2.33;;;16.40;65.70;;;;;;10410770;28;20037;-53
2022/12/06 18:40:44;;;;;;;12.43;3.55;;;16.30;66.40;;;;;;10422603;28;20124;-53
2022/12/06 18:45:45;;;;;;;10.25;2.70;;;16.50;66.50;;;;;;10426897;28;20109;-52
2022/12/06 18:50:45;;;;;;;7.70;2.17;;;16.40;66.80;;;;;;10405940;28;20064;-53
2022/12/06 18:55:47;;;;;;;6.97;2.40;;;16.40;66.90;;;;;;10417170;28;20071;-50
2022/12/06 19:00:47;;;;;;;6.82;3.00;;;16.40;67.10;;;;;;10421990;28;20104;-51
2022/12/06 19:05:48;;;;;;;10.35;2.25;;;16.20;66.80;;;;;;10430414;28;20048;-51
2022/12/06 19:10:49;;;;;;;7.05;2.50;;;16.10;67.00;;;;;;10440031;28;20167;-53
2022/12/06 19:15:49;;;;;;;8.95;2.50;;;16.00;67.10;;;;;;10439217;28;20079;-50
2022/12/06 19:20:50;;;;;;;5.28;2.25;;;15.90;67.10;;;;;;10440130;28;20056;-51
2022/12/06 19:25:51;;;;;;;5.53;2.75;;;15.80;67.10;;;;;;10401651;28;20061;-52
2022/12/06 19:31:01;;;;;;;4.60;1.88;;;15.80;67.10;;;;;;10386727;28;20060;-52
2022/12/06 19:36:06;;;;;;;7.88;2.03;;;15.70;66.90;;;;;;10441579;28;20063;-51
2022/12/06 19:41:12;;;;;;;4.95;1.60;;;15.70;67.00;;;;;;10439697;28;20029;-53
2022/12/06 19:46:20;;;;;;;5.93;2.35;;;15.60;67.00;;;;;;10427557;28;20463;-51
2022/12/06 19:51:21;;;;;;;6.28;2.60;;;15.60;66.60;;;;;;10441840;28;20029;-53
2022/12/06 19:56:23;;;;;;;4.35;2.15;;;15.70;66.40;;;;;;10424687;28;20025;-52
2022/12/06 20:01:28;;;;;;;5.80;2.00;;;15.70;66.20;;;;;;10414703;28;20372;-53
2022/12/06 20:06:29;;;;;;;4.60;2.05;;;15.80;66.10;;;;;;10438325;28;20036;-51
2022/12/06 20:16:50;;;;;;;4.30;2.15;;;15.80;66.10;;;;;;10445770;28;20032;-52
2022/12/06 20:21:51;;;;;;;4.53;2.17;;;15.90;65.90;;;;;;10441449;28;20021;-52
2022/12/06 20:26:53;;;;;;;5.25;1.65;;;15.80;65.80;;;;;;10438028;28;20036;-53
2022/12/06 20:31:59;;;;;;;5.40;2.28;;;15.80;65.80;;;;;;10425394;28;20111;-53
2022/12/06 20:37:02;;;;;;;6.45;2.00;;;15.80;66.00;;;;;;10438076;28;20043;-52
2022/12/06 20:42:05;;;;;;;3.58;1.98;;;15.80;65.90;;;;;;10426675;28;20413;-52
2022/12/06 20:47:06;;;;;;;4.63;2.75;;;15.80;65.70;;;;;;10429881;28;20128;-54
2022/12/06 20:52:06;;;;;;;5.38;2.33;;;15.90;65.40;;;;;;10416937;28;20023;-54
2022/12/06 20:57:07;;;;;;;4.57;1.88;;;16.00;65.20;;;;;;10436475;28;20043;-53
2022/12/06 21:02:11;;;;;;;6.55;2.78;;;16.10;65.00;;;;;;10428877;28;20124;-52
2022/12/06 21:07:12;;;;;;;3.03;1.55;;;16.10;64.80;;;;;;10413680;28;20428;-54
2022/12/06 21:12:12;;;;;;;3.60;2.55;;;16.10;64.90;;;;;;10415995;28;20036;-54
2022/12/06 21:17:13;;;;;;;2.63;1.70;;;16.00;65.00;;;;;;10450319;28;20242;-55
2022/12/06 21:22:14;;;;;;;4.63;2.45;;;16.00;65.20;;;;;;10443919;28;20026;-53
2022/12/06 21:27:14;;;;;;;3.15;2.03;;;16.00;65.10;;;;;;10420179;28;20033;-51
2022/12/06 21:32:15;;;;;;;4.90;2.05;;;16.00;65.10;;;;;;10407341;28;20041;-52
2022/12/06 21:37:16;;;;;;;4.88;2.40;;;15.90;65.10;;;;;;10434592;28;20551;-59
2022/12/06 21:42:19;;;;;;;2.78;1.88;;;15.90;65.10;;;;;;10398801;28;20643;-53
2022/12/06 21:47:20;;;;;;;4.65;2.10;;;16.00;65.00;;;;;;10428605;28;20052;-53
2022/12/06 21:52:21;;;;;;;4.85;2.38;;;15.90;65.00;;;;;;10412182;28;20018;-53
2022/12/06 21:57:21;;;;;;;3.60;1.83;;;15.90;65.10;;;;;;10444137;28;20017;-52
2022/12/06 22:02:22;;;;;;;3.85;1.98;;;15.90;65.00;;;;;;10439495;28;20025;-54
2022/12/06 22:07:23;;;;;;;3.55;2.25;;;16.00;64.80;;;;;;10433734;28;20130;-52
2022/12/06 22:12:24;;;;;;;5.82;2.38;;;16.00;64.70;;;;;;10418109;28;20099;-52
2022/12/06 22:17:25;;;;;;;3.28;1.90;;;15.90;64.70;;;;;;10420490;28;20025;-51
2022/12/06 22:22:25;;;;;;;4.05;1.90;;;15.90;64.90;;;;;;10441980;28;20083;-49
2022/12/06 22:27:26;;;;;;;4.97;2.10;;;15.90;64.70;;;;;;10427466;28;20111;-53
2022/12/06 22:32:27;;;;;;;2.97;1.65;;;16.00;64.40;;;;;;10441859;28;20056;-53
2022/12/06 22:37:27;;;;;;;4.60;1.73;;;16.00;64.40;;;;;;10418567;28;20118;-52
2022/12/06 22:42:31;;;;;;;3.33;1.60;;;16.00;64.40;;;;;;10431851;28;20539;-54
2022/12/06 22:47:31;;;;;;;2.55;1.70;;;15.90;64.60;;;;;;10446528;28;20048;-54
2022/12/06 22:52:32;;;;;;;3.00;1.58;;;16.00;64.60;;;;;;10445433;28;20101;-53
2022/12/06 22:57:33;;;;;;;2.25;1.48;;;15.90;64.50;;;;;;10431929;28;20025;-52
2022/12/06 23:02:33;;;;;;;3.55;2.08;;;15.90;64.60;;;;;;10444390;28;20029;-52
2022/12/06 23:07:34;;;;;;;3.58;2.00;;;16.00;64.40;;;;;;10446153;28;20496;-53
2022/12/06 23:12:39;;;;;;;3.40;1.60;;;16.10;64.10;;;;;;10430696;28;20100;-52
2022/12/06 23:17:39;;;;;;;2.67;1.50;;;16.10;64.00;;;;;;10419448;28;20017;-54
2022/12/06 23:22:40;;;;;;;2.78;1.85;;;16.00;64.10;;;;;;10432388;28;20053;-59
2022/12/06 23:27:41;;;;;;;2.30;1.60;;;16.00;64.20;;;;;;10404875;28;20108;-56
2022/12/06 23:32:41;;;;;;;3.63;1.60;;;16.00;64.10;;;;;;10414493;28;20048;-58
2022/12/06 23:37:42;;;;;;;2.65;1.52;;;16.00;64.20;;;;;;10410161;28;20208;-59
2022/12/06 23:42:42;;;;;;;2.25;1.52;;;16.00;64.20;;;;;;10437651;28;20059;-58
2022/12/06 23:47:43;;;;;;;2.80;1.50;;;16.00;64.10;;;;;;10445159;28;20080;-59
2022/12/06 23:52:44;;;;;;;2.72;1.40;;;16.00;64.10;;;;;;10445112;28;20618;-60
2022/12/06 23:57:44;;;;;;;2.33;1.10;;;16.00;64.00;;;;;;10444247;28;20607;-60
